createdAt,value
2017-06-05T00:00:20.382Z,14.65
2017-06-05T00:01:20.961Z,14.66
2017-06-05T00:02:21.538Z,14.78
2017-06-05T00:03:22.114Z,14.70
2017-06-05T00:04:22.690Z,14.78
2017-06-05T00:05:23.265Z,14.70
2017-06-05T00:06:23.841Z,14.88
2017-06-05T00:07:24.431Z,14.78
2017-06-05T00:08:25.008Z,14.26
2017-06-05T00:09:25.584Z,14.20
2017-06-05T00:10:26.161Z,14.36
2017-06-05T00:11:26.740Z,14.51
2017-06-05T00:12:27.318Z,14.53
2017-06-05T00:13:27.899Z,14.68
2017-06-05T00:14:28.488Z,14.41
2017-06-05T00:15:29.066Z,14.54
2017-06-05T00:16:29.642Z,14.73
2017-06-05T00:17:30.219Z,14.66
2017-06-05T00:18:30.794Z,14.69
2017-06-05T00:19:31.373Z,14.69
2017-06-05T00:20:31.949Z,14.78
2017-06-05T00:21:32.530Z,14.62
2017-06-05T00:22:33.120Z,14.59
2017-06-05T00:23:33.696Z,14.60
2017-06-05T00:24:34.275Z,14.69
2017-06-05T00:25:34.852Z,14.60
2017-06-05T00:26:35.428Z,14.65
2017-06-05T00:27:36.004Z,14.53
2017-06-05T00:28:36.582Z,14.72
2017-06-05T00:29:37.160Z,13.97
2017-06-05T00:30:37.737Z,14.22
2017-06-05T00:31:38.315Z,14.32
2017-06-05T00:32:38.892Z,14.30
2017-06-05T00:33:39.467Z,14.40
2017-06-05T00:34:40.045Z,14.35
2017-06-05T00:35:40.621Z,14.54
2017-06-05T00:36:41.200Z,13.96
2017-06-05T00:37:41.777Z,14.32
2017-06-05T00:38:42.357Z,14.28
2017-06-05T00:39:42.931Z,14.48
2017-06-05T00:40:43.507Z,14.26
2017-06-05T00:41:44.084Z,14.59
2017-06-05T00:42:44.660Z,14.58
2017-06-05T00:43:45.241Z,14.92
2017-06-05T00:44:45.815Z,14.69
2017-06-05T00:45:46.395Z,14.58
2017-06-05T00:46:46.972Z,14.45
2017-06-05T00:47:47.548Z,13.95
2017-06-05T00:48:48.126Z,14.55
2017-06-05T00:49:48.702Z,14.48
2017-06-05T00:50:49.280Z,14.69
2017-06-05T00:51:49.857Z,14.45
2017-06-05T00:52:50.436Z,14.50
2017-06-05T00:53:51.027Z,14.54
2017-06-05T00:54:51.604Z,14.53
2017-06-05T00:55:52.181Z,14.40
2017-06-05T00:56:52.758Z,14.48
2017-06-05T00:57:53.351Z,14.44
2017-06-05T00:58:53.942Z,14.32
2017-06-05T00:59:54.520Z,14.08
2017-06-05T01:00:55.096Z,14.12
2017-06-05T01:01:55.672Z,14.35
2017-06-05T01:02:56.248Z,14.18
2017-06-05T01:03:56.824Z,13.68
2017-06-05T01:04:57.402Z,13.65
2017-06-05T01:05:57.979Z,13.89
2017-06-05T01:06:58.558Z,14.08
2017-06-05T01:07:59.135Z,14.23
2017-06-05T01:08:59.711Z,13.86
2017-06-05T01:10:00.289Z,14.03
2017-06-05T01:11:00.878Z,14.07
2017-06-05T01:12:01.455Z,14.08
2017-06-05T01:13:02.030Z,13.87
2017-06-05T01:14:02.608Z,13.68
2017-06-05T01:15:03.184Z,13.89
2017-06-05T01:16:03.793Z,13.74
2017-06-05T01:17:04.344Z,13.67
2017-06-05T01:18:04.914Z,13.57
2017-06-05T01:19:05.492Z,13.79
2017-06-05T01:20:06.067Z,13.70
2017-06-05T01:21:06.643Z,13.65
2017-06-05T01:22:07.222Z,14.05
2017-06-05T01:23:07.799Z,13.95
2017-06-05T01:24:08.378Z,14.04
2017-06-05T01:25:08.953Z,14.04
2017-06-05T01:26:09.530Z,13.87
2017-06-05T01:27:10.106Z,14.07
2017-06-05T01:28:10.682Z,14.18
2017-06-05T01:29:11.258Z,14.05
2017-06-05T01:30:11.835Z,13.81
2017-06-05T01:31:12.419Z,13.65
2017-06-05T01:32:12.990Z,13.53
2017-06-05T01:33:13.568Z,13.70
2017-06-05T01:34:14.144Z,13.75
2017-06-05T01:35:14.721Z,14.00
2017-06-05T01:36:15.300Z,14.05
2017-06-05T01:37:15.879Z,13.92
2017-06-05T01:38:16.455Z,13.54
2017-06-05T01:39:17.032Z,13.50
2017-06-05T01:40:17.606Z,13.93
2017-06-05T01:41:18.181Z,13.56
2017-06-05T01:42:18.758Z,13.49
2017-06-05T01:43:19.336Z,13.42
2017-06-05T01:44:19.914Z,13.33
2017-06-05T01:45:20.490Z,13.44
2017-06-05T01:46:21.065Z,13.31
2017-06-05T01:47:21.642Z,13.25
2017-06-05T01:48:22.231Z,13.16
2017-06-05T01:49:22.805Z,13.23
2017-06-05T01:50:23.382Z,13.54
2017-06-05T01:51:23.957Z,13.52
2017-06-05T01:52:24.534Z,13.41
2017-06-05T01:53:25.109Z,12.97
2017-06-05T01:54:25.687Z,12.85
2017-06-05T01:55:26.277Z,12.58
2017-06-05T01:56:26.851Z,13.16
2017-06-05T01:57:27.428Z,13.44
2017-06-05T01:58:28.007Z,13.46
2017-06-05T01:59:28.581Z,13.47
2017-06-05T02:00:29.159Z,13.54
2017-06-05T02:01:29.734Z,13.00
2017-06-05T02:02:30.310Z,13.27
2017-06-05T02:03:30.918Z,13.41
2017-06-05T02:04:31.463Z,12.53
2017-06-05T02:05:32.052Z,12.65
2017-06-05T02:06:32.627Z,12.91
2017-06-05T02:07:33.204Z,13.19
2017-06-05T02:08:33.781Z,13.50
2017-06-05T02:09:34.355Z,13.30
2017-06-05T02:10:34.945Z,13.12
2017-06-05T02:11:35.535Z,13.00
2017-06-05T02:12:36.110Z,12.87
2017-06-05T02:13:36.686Z,12.78
2017-06-05T02:14:37.261Z,12.75
2017-06-05T02:15:37.838Z,12.75
2017-06-05T02:16:38.415Z,13.01
2017-06-05T02:17:38.991Z,13.28
2017-06-05T02:18:39.568Z,13.41
2017-06-05T02:19:40.143Z,13.59
2017-06-05T02:20:40.718Z,13.46
2017-06-05T02:21:41.298Z,13.49
2017-06-05T02:22:41.869Z,13.25
2017-06-05T02:23:42.460Z,12.87
2017-06-05T02:24:43.034Z,13.09
2017-06-05T02:25:43.610Z,13.37
2017-06-05T02:26:44.201Z,12.97
2017-06-05T02:27:44.809Z,13.04
2017-06-05T02:28:45.366Z,13.08
2017-06-05T02:29:45.955Z,12.90
2017-06-05T02:30:46.532Z,12.94
2017-06-05T02:31:47.108Z,12.85
2017-06-05T02:32:47.683Z,12.83
2017-06-05T02:33:48.259Z,12.58
2017-06-05T02:34:48.834Z,12.13
2017-06-05T02:35:49.411Z,12.43
2017-06-05T02:36:49.991Z,12.54
2017-06-05T02:37:50.565Z,12.54
2017-06-05T02:38:51.140Z,12.90
2017-06-05T02:39:51.716Z,12.67
2017-06-05T02:40:52.291Z,13.01
2017-06-05T02:41:52.866Z,13.09
2017-06-05T02:42:53.441Z,13.15
2017-06-05T02:43:54.017Z,13.08
2017-06-05T02:44:54.595Z,13.16
2017-06-05T02:45:55.170Z,12.91
2017-06-05T02:46:55.746Z,13.20
2017-06-05T02:47:56.337Z,13.04
2017-06-05T02:48:56.911Z,12.98
2017-06-05T02:49:57.489Z,13.00
2017-06-05T02:50:58.064Z,12.70
2017-06-05T02:51:58.640Z,12.72
2017-06-05T02:52:59.216Z,12.55
2017-06-05T02:53:59.792Z,12.65
2017-06-05T02:55:00.369Z,12.93
2017-06-05T02:56:00.943Z,12.54
2017-06-05T02:57:01.520Z,12.86
2017-06-05T02:58:02.094Z,13.12
2017-06-05T02:59:02.669Z,12.94
2017-06-05T03:00:03.245Z,13.05
2017-06-05T03:01:03.821Z,12.94
2017-06-05T03:02:04.399Z,12.93
2017-06-05T03:03:04.981Z,13.01
2017-06-05T03:04:05.552Z,13.11
2017-06-05T03:05:06.127Z,12.97
2017-06-05T03:06:06.702Z,12.93
2017-06-05T03:07:07.276Z,12.87
2017-06-05T03:08:07.851Z,12.68
2017-06-05T03:09:08.426Z,12.46
2017-06-05T03:10:09.001Z,12.65
2017-06-05T03:11:09.578Z,12.97
2017-06-05T03:12:10.156Z,12.97
2017-06-05T03:13:10.735Z,12.73
2017-06-05T03:14:11.311Z,12.68
2017-06-05T03:15:11.887Z,12.67
2017-06-05T03:16:12.463Z,13.09
2017-06-05T03:17:13.040Z,12.83
2017-06-05T03:18:13.617Z,12.86
2017-06-05T03:19:14.207Z,13.31
2017-06-05T03:20:14.783Z,13.12
2017-06-05T03:21:15.362Z,13.15
2017-06-05T03:22:15.937Z,13.35
2017-06-05T03:23:16.512Z,13.18
2017-06-05T03:24:17.089Z,13.18
2017-06-05T03:25:17.666Z,13.08
2017-06-05T03:26:18.245Z,12.93
2017-06-05T03:27:18.822Z,13.04
2017-06-05T03:28:19.398Z,12.79
2017-06-05T03:29:19.977Z,12.78
2017-06-05T03:30:20.552Z,12.75
2017-06-05T03:31:21.140Z,12.75
2017-06-05T03:32:21.715Z,12.86
2017-06-05T03:33:22.291Z,12.54
2017-06-05T03:34:22.868Z,12.68
2017-06-05T03:35:23.458Z,12.55
2017-06-05T03:36:24.035Z,12.68
2017-06-05T03:37:24.617Z,12.65
2017-06-05T03:38:25.191Z,12.86
2017-06-05T03:39:25.767Z,13.03
2017-06-05T03:40:26.343Z,13.12
2017-06-05T03:41:26.920Z,13.09
2017-06-05T03:42:27.502Z,13.08
2017-06-05T03:43:28.076Z,12.95
2017-06-05T03:44:28.654Z,12.87
2017-06-05T03:45:29.230Z,12.78
2017-06-05T03:46:29.808Z,12.73
2017-06-05T03:47:30.386Z,12.70
2017-06-05T03:48:30.962Z,12.73
2017-06-05T03:49:31.537Z,12.70
2017-06-05T03:50:32.114Z,12.70
2017-06-05T03:51:32.690Z,12.76
2017-06-05T03:52:33.269Z,12.80
2017-06-05T03:53:33.845Z,12.68
2017-06-05T03:54:34.423Z,12.87
2017-06-05T03:55:35.000Z,13.15
2017-06-05T03:56:35.575Z,12.94
2017-06-05T03:57:36.153Z,13.09
2017-06-05T03:58:36.730Z,12.93
2017-06-05T03:59:37.310Z,13.16
2017-06-05T04:00:37.886Z,13.27
2017-06-05T04:01:38.463Z,13.19
2017-06-05T04:02:39.042Z,13.03
2017-06-05T04:03:39.619Z,12.70
2017-06-05T04:04:40.198Z,12.97
2017-06-05T04:05:40.776Z,13.09
2017-06-05T04:06:41.355Z,12.93
2017-06-05T04:07:41.935Z,13.20
2017-06-05T04:08:42.512Z,13.19
2017-06-05T04:09:43.091Z,13.15
2017-06-05T04:10:43.679Z,13.03
2017-06-05T04:11:44.257Z,13.08
2017-06-05T04:12:44.835Z,13.05
2017-06-05T04:13:45.415Z,12.83
2017-06-05T04:14:45.993Z,12.97
2017-06-05T04:15:46.584Z,12.93
2017-06-05T04:16:47.161Z,13.00
2017-06-05T04:17:47.740Z,13.04
2017-06-05T04:18:48.317Z,12.98
2017-06-05T04:19:48.896Z,12.93
2017-06-05T04:20:49.475Z,12.93
2017-06-05T04:21:50.052Z,12.86
2017-06-05T04:22:50.632Z,12.67
2017-06-05T04:23:51.210Z,12.86
2017-06-05T04:24:51.790Z,13.25
2017-06-05T04:25:52.371Z,13.46
2017-06-05T04:26:52.949Z,13.37
2017-06-05T04:27:53.528Z,13.37
2017-06-05T04:28:54.106Z,13.90
2017-06-05T04:29:54.684Z,13.71
2017-06-05T04:30:55.265Z,13.75
2017-06-05T04:31:55.844Z,13.41
2017-06-05T04:32:56.424Z,13.70
2017-06-05T04:33:57.015Z,13.54
2017-06-05T04:34:57.607Z,13.42
2017-06-05T04:35:58.188Z,13.30
2017-06-05T04:36:58.766Z,13.52
2017-06-05T04:37:59.346Z,13.74
2017-06-05T04:38:59.925Z,13.74
2017-06-05T04:40:00.504Z,13.42
2017-06-05T04:41:01.084Z,13.53
2017-06-05T04:42:01.664Z,13.15
2017-06-05T04:43:02.243Z,13.46
2017-06-05T04:44:02.823Z,13.46
2017-06-05T04:45:03.403Z,13.23
2017-06-05T04:46:03.981Z,13.57
2017-06-05T04:47:04.563Z,13.70
2017-06-05T04:48:05.141Z,13.81
2017-06-05T04:49:05.720Z,13.83
2017-06-05T04:50:06.301Z,13.95
2017-06-05T04:51:06.879Z,13.96
2017-06-05T04:52:07.461Z,13.85
2017-06-05T04:53:08.037Z,13.71
2017-06-05T04:54:08.616Z,13.92
2017-06-05T04:55:09.196Z,13.59
2017-06-05T04:56:09.774Z,13.67
2017-06-05T04:57:10.353Z,13.70
2017-06-05T04:58:10.934Z,13.53
2017-06-05T04:59:11.513Z,13.39
2017-06-05T05:00:12.090Z,13.65
2017-06-05T05:01:12.671Z,13.75
2017-06-05T05:02:13.251Z,13.79
2017-06-05T05:03:13.832Z,13.72
2017-06-05T05:04:14.412Z,13.39
2017-06-05T05:05:15.006Z,13.71
2017-06-05T05:06:15.586Z,13.86
2017-06-05T05:07:16.180Z,13.93
2017-06-05T05:08:16.761Z,13.74
2017-06-05T05:09:17.343Z,13.93
2017-06-05T05:10:17.918Z,14.03
2017-06-05T05:11:18.500Z,13.85
2017-06-05T05:12:19.079Z,13.92
2017-06-05T05:13:19.659Z,13.92
2017-06-05T05:14:20.240Z,13.81
2017-06-05T05:15:20.820Z,14.04
2017-06-05T05:16:21.399Z,14.22
2017-06-05T05:17:21.981Z,14.04
2017-06-05T05:18:22.560Z,13.59
2017-06-05T05:19:23.139Z,13.78
2017-06-05T05:20:23.733Z,13.71
2017-06-05T05:21:24.313Z,13.71
2017-06-05T05:22:24.895Z,13.46
2017-06-05T05:23:25.475Z,13.42
2017-06-05T05:24:26.063Z,13.89
2017-06-05T05:25:26.634Z,14.26
2017-06-05T05:26:27.215Z,14.25
2017-06-05T05:27:27.794Z,14.28
2017-06-05T05:28:28.373Z,14.25
2017-06-05T05:29:28.954Z,14.20
2017-06-05T05:30:29.534Z,14.20
2017-06-05T05:31:30.114Z,14.29
2017-06-05T05:32:30.695Z,14.10
2017-06-05T05:33:31.274Z,13.96
2017-06-05T05:34:31.855Z,14.29
2017-06-05T05:35:32.433Z,14.00
2017-06-05T05:36:33.014Z,14.25
2017-06-05T05:37:33.597Z,14.33
2017-06-05T05:38:34.176Z,14.12
2017-06-05T05:39:34.756Z,14.03
2017-06-05T05:40:35.338Z,14.17
2017-06-05T05:41:35.918Z,14.36
2017-06-05T05:42:36.496Z,14.81
2017-06-05T05:43:37.076Z,14.84
2017-06-05T05:44:37.656Z,14.44
2017-06-05T05:45:38.236Z,14.45
2017-06-05T05:46:38.815Z,14.14
2017-06-05T05:47:39.395Z,14.17
2017-06-05T05:48:39.975Z,13.97
2017-06-05T05:49:40.553Z,13.99
2017-06-05T05:50:41.133Z,14.04
2017-06-05T05:51:41.715Z,14.14
2017-06-05T05:52:42.294Z,14.32
2017-06-05T05:53:42.874Z,14.18
2017-06-05T05:54:43.455Z,14.26
2017-06-05T05:55:44.035Z,14.25
2017-06-05T05:56:44.616Z,14.28
2017-06-05T05:57:45.195Z,14.78
2017-06-05T05:58:45.776Z,14.86
2017-06-05T05:59:46.357Z,15.28
2017-06-05T06:00:46.939Z,15.52
2017-06-05T06:01:47.518Z,15.83
2017-06-05T06:02:48.100Z,15.82
2017-06-05T06:03:48.677Z,15.72
2017-06-05T06:04:49.258Z,15.88
2017-06-05T06:05:49.839Z,15.90
2017-06-05T06:06:50.434Z,15.86
2017-06-05T06:07:51.014Z,16.04
2017-06-05T06:08:51.594Z,16.00
2017-06-05T06:09:52.172Z,16.24
2017-06-05T06:10:52.752Z,16.35
2017-06-05T06:11:53.334Z,16.29
2017-06-05T06:12:53.914Z,16.28
2017-06-05T06:13:54.495Z,16.01
2017-06-05T06:14:55.078Z,16.31
2017-06-05T06:15:55.658Z,16.26
2017-06-05T06:16:56.238Z,16.29
2017-06-05T06:17:56.820Z,16.31
2017-06-05T06:18:57.401Z,16.39
2017-06-05T06:19:57.982Z,16.32
2017-06-05T06:20:58.563Z,16.43
2017-06-05T06:21:59.144Z,16.38
2017-06-05T06:22:59.726Z,16.47
2017-06-05T06:24:00.307Z,16.21
2017-06-05T06:25:00.889Z,16.24
2017-06-05T06:26:01.472Z,16.16
2017-06-05T06:27:02.066Z,16.29
2017-06-05T06:28:02.634Z,16.16
2017-06-05T06:29:03.216Z,15.92
2017-06-05T06:30:03.796Z,16.01
2017-06-05T06:31:04.379Z,15.75
2017-06-05T06:32:04.974Z,15.86
2017-06-05T06:33:05.567Z,16.01
2017-06-05T06:34:06.148Z,16.21
2017-06-05T06:35:06.728Z,16.02
2017-06-05T06:36:07.310Z,16.10
2017-06-05T06:37:07.891Z,15.98
2017-06-05T06:38:08.471Z,16.08
2017-06-05T06:39:09.054Z,16.16
2017-06-05T06:40:09.633Z,16.28
2017-06-05T06:41:10.215Z,16.36
2017-06-05T06:42:10.794Z,16.32
2017-06-05T06:43:11.376Z,16.41
2017-06-05T06:44:11.961Z,16.38
2017-06-05T06:45:12.541Z,16.04
2017-06-05T06:46:13.122Z,16.28
2017-06-05T06:47:13.704Z,16.31
2017-06-05T06:48:14.285Z,16.49
2017-06-05T06:49:14.867Z,16.51
2017-06-05T06:50:15.449Z,16.43
2017-06-05T06:51:16.032Z,16.39
2017-06-05T06:52:16.612Z,16.69
2017-06-05T06:53:17.196Z,16.89
2017-06-05T06:54:17.777Z,16.97
2017-06-05T06:55:18.359Z,16.84
2017-06-05T06:56:18.940Z,16.69
2017-06-05T06:57:19.523Z,16.51
2017-06-05T06:58:20.104Z,16.58
2017-06-05T06:59:20.686Z,16.56
2017-06-05T07:00:21.268Z,16.58
2017-06-05T07:01:21.851Z,16.57
2017-06-05T07:02:22.434Z,16.29
2017-06-05T07:03:23.013Z,16.41
2017-06-05T07:04:23.596Z,16.42
2017-06-05T07:05:24.182Z,16.24
2017-06-05T07:06:24.759Z,16.23
2017-06-05T07:07:25.345Z,16.57
2017-06-05T07:08:25.921Z,16.51
2017-06-05T07:09:26.504Z,16.51
2017-06-05T07:10:27.099Z,16.58
2017-06-05T07:11:27.680Z,16.64
2017-06-05T07:12:28.262Z,16.41
2017-06-05T07:13:28.845Z,16.64
2017-06-05T07:14:29.424Z,16.60
2017-06-05T07:15:30.005Z,17.06
2017-06-05T07:16:30.592Z,16.90
2017-06-05T07:17:31.166Z,17.16
2017-06-05T07:18:31.749Z,16.74
2017-06-05T07:19:32.331Z,16.66
2017-06-05T07:20:32.913Z,16.72
2017-06-05T07:21:33.497Z,16.75
2017-06-05T07:22:34.076Z,16.64
2017-06-05T07:23:34.658Z,16.75
2017-06-05T07:24:35.242Z,16.86
2017-06-05T07:25:35.824Z,16.93
2017-06-05T07:26:36.405Z,17.16
2017-06-05T07:27:36.991Z,17.08
2017-06-05T07:28:37.569Z,17.05
2017-06-05T07:29:38.165Z,17.29
2017-06-05T07:30:38.748Z,17.45
2017-06-05T07:31:39.330Z,17.52
2017-06-05T07:32:39.928Z,17.65
2017-06-05T07:33:40.524Z,17.85
2017-06-05T07:34:41.106Z,17.65
2017-06-05T07:35:41.691Z,17.38
2017-06-05T07:36:42.285Z,17.63
2017-06-05T07:37:42.866Z,17.92
2017-06-05T07:38:43.448Z,17.85
2017-06-05T07:39:44.032Z,17.78
2017-06-05T07:40:44.613Z,17.67
2017-06-05T07:41:45.194Z,17.90
2017-06-05T07:42:45.776Z,18.11
2017-06-05T07:43:46.360Z,18.47
2017-06-05T07:44:46.961Z,18.34
2017-06-05T07:45:47.539Z,18.25
2017-06-05T07:46:48.137Z,18.13
2017-06-05T07:47:48.719Z,17.70
2017-06-05T07:48:49.315Z,18.10
2017-06-05T07:49:49.897Z,18.40
2017-06-05T07:50:50.483Z,18.16
2017-06-05T07:51:51.061Z,18.28
2017-06-05T07:52:51.643Z,18.52
2017-06-05T07:53:52.226Z,18.18
2017-06-05T07:54:52.809Z,18.26
2017-06-05T07:55:53.405Z,18.66
2017-06-05T07:56:53.989Z,18.53
2017-06-05T07:57:54.585Z,18.47
2017-06-05T07:58:55.180Z,18.71
2017-06-05T07:59:55.761Z,18.37
2017-06-05T08:00:56.344Z,18.07
2017-06-05T08:01:56.928Z,18.49
2017-06-05T08:02:57.509Z,18.59
2017-06-05T08:03:58.093Z,18.60
2017-06-05T08:04:58.674Z,18.38
2017-06-05T08:05:59.256Z,18.56
2017-06-05T08:06:59.844Z,18.73
2017-06-05T08:08:00.421Z,19.11
2017-06-05T08:09:01.004Z,19.33
2017-06-05T08:10:01.598Z,19.34
2017-06-05T08:11:02.182Z,19.24
2017-06-05T08:12:02.764Z,19.36
2017-06-05T08:13:03.348Z,18.58
2017-06-05T08:14:03.947Z,18.35
2017-06-05T08:15:04.527Z,18.63
2017-06-05T08:16:05.110Z,18.88
2017-06-05T08:17:05.694Z,19.45
2017-06-05T08:18:06.279Z,19.76
2017-06-05T08:19:06.858Z,19.59
2017-06-05T08:20:07.441Z,19.85
2017-06-05T08:21:08.026Z,20.03
2017-06-05T08:22:08.609Z,19.84
2017-06-05T08:23:09.191Z,19.67
2017-06-05T08:24:09.774Z,20.07
2017-06-05T08:25:10.359Z,19.99
2017-06-05T08:26:10.941Z,19.89
2017-06-05T08:27:11.538Z,19.79
2017-06-05T08:28:12.122Z,19.88
2017-06-05T08:29:12.707Z,20.11
2017-06-05T08:30:13.291Z,19.95
2017-06-05T08:31:13.888Z,19.86
2017-06-05T08:32:14.473Z,20.06
2017-06-05T08:33:15.058Z,20.02
2017-06-05T08:34:15.655Z,20.10
2017-06-05T08:35:16.237Z,19.95
2017-06-05T08:36:16.821Z,19.94
2017-06-05T08:37:17.405Z,19.89
2017-06-05T08:38:17.987Z,19.88
2017-06-05T08:39:18.573Z,19.66
2017-06-05T08:40:19.157Z,19.58
2017-06-05T08:41:19.740Z,19.54
2017-06-05T08:42:20.337Z,19.45
2017-06-05T08:43:20.922Z,19.66
2017-06-05T08:44:21.506Z,19.81
2017-06-05T08:45:22.089Z,19.71
2017-06-05T08:46:22.674Z,19.96
2017-06-05T08:47:23.256Z,20.07
2017-06-05T08:48:23.841Z,19.73
2017-06-05T08:49:24.424Z,19.26
2017-06-05T08:50:25.008Z,19.76
2017-06-05T08:51:25.594Z,20.09
2017-06-05T08:52:26.176Z,20.07
2017-06-05T08:53:26.760Z,19.94
2017-06-05T08:54:27.347Z,19.62
2017-06-05T08:55:27.929Z,19.76
2017-06-05T08:56:28.512Z,19.79
2017-06-05T08:57:29.107Z,19.86
2017-06-05T08:58:29.692Z,19.95
2017-06-05T08:59:30.276Z,19.59
2017-06-05T09:00:30.861Z,19.77
2017-06-05T09:01:31.443Z,20.13
2017-06-05T09:02:32.029Z,20.51
2017-06-05T09:03:32.613Z,20.75
2017-06-05T09:04:33.196Z,20.95
2017-06-05T09:05:33.780Z,21.02
2017-06-05T09:06:34.365Z,21.02
2017-06-05T09:07:34.949Z,21.02
2017-06-05T09:08:35.531Z,20.96
2017-06-05T09:09:36.128Z,20.75
2017-06-05T09:10:36.713Z,19.94
2017-06-05T09:11:37.296Z,20.22
2017-06-05T09:12:37.880Z,20.55
2017-06-05T09:13:38.464Z,20.69
2017-06-05T09:14:39.049Z,21.00
2017-06-05T09:15:39.635Z,21.09
2017-06-05T09:16:40.218Z,21.05
2017-06-05T09:17:40.802Z,20.50
2017-06-05T09:18:41.386Z,20.78
2017-06-05T09:19:41.970Z,20.88
2017-06-05T09:20:42.554Z,21.33
2017-06-05T09:21:43.138Z,21.43
2017-06-05T09:22:43.722Z,21.05
2017-06-05T09:23:44.308Z,21.21
2017-06-05T09:24:44.894Z,20.26
2017-06-05T09:25:45.478Z,20.41
2017-06-05T09:26:46.063Z,21.24
2017-06-05T09:27:46.648Z,21.37
2017-06-05T09:28:47.232Z,21.29
2017-06-05T09:29:47.830Z,20.92
2017-06-05T09:30:48.415Z,20.80
2017-06-05T09:31:49.000Z,20.74
2017-06-05T09:32:49.584Z,20.63
2017-06-05T09:33:50.169Z,21.22
2017-06-05T09:34:50.753Z,21.46
2017-06-05T09:35:51.337Z,21.42
2017-06-05T09:36:51.922Z,21.24
2017-06-05T09:37:52.509Z,20.52
2017-06-05T09:38:53.105Z,20.92
2017-06-05T09:39:53.686Z,21.27
2017-06-05T09:40:54.269Z,21.82
2017-06-05T09:41:54.854Z,21.75
2017-06-05T09:42:55.439Z,21.43
2017-06-05T09:43:56.023Z,21.98
2017-06-05T09:44:56.607Z,22.07
2017-06-05T09:45:57.191Z,21.07
2017-06-05T09:46:57.775Z,21.55
2017-06-05T09:47:58.358Z,21.14
2017-06-05T09:48:58.943Z,21.42
2017-06-05T09:49:59.530Z,21.82
2017-06-05T09:51:00.115Z,21.99
2017-06-05T09:52:00.698Z,21.57
2017-06-05T09:53:01.283Z,21.93
2017-06-05T09:54:01.869Z,22.17
2017-06-05T09:55:02.452Z,22.10
2017-06-05T09:56:03.036Z,21.33
2017-06-05T09:57:03.623Z,21.73
2017-06-05T09:58:04.207Z,21.98
2017-06-05T09:59:04.790Z,22.07
2017-06-05T10:00:05.378Z,21.95
2017-06-05T10:01:05.977Z,21.50
2017-06-05T10:02:06.563Z,20.75
2017-06-05T10:03:07.159Z,21.02
2017-06-05T10:04:07.744Z,20.93
2017-06-05T10:05:08.346Z,21.24
2017-06-05T10:06:08.913Z,21.70
2017-06-05T10:07:09.499Z,22.32
2017-06-05T10:08:10.081Z,22.84
2017-06-05T10:09:10.665Z,22.83
2017-06-05T10:10:11.252Z,22.57
2017-06-05T10:11:11.836Z,22.44
2017-06-05T10:12:12.421Z,22.35
2017-06-05T10:13:13.020Z,21.75
2017-06-05T10:14:13.606Z,21.99
2017-06-05T10:15:14.205Z,21.79
2017-06-05T10:16:14.790Z,22.22
2017-06-05T10:17:15.376Z,22.36
2017-06-05T10:18:15.965Z,22.72
2017-06-05T10:19:16.549Z,22.81
2017-06-05T10:20:17.135Z,22.81
2017-06-05T10:21:17.721Z,22.68
2017-06-05T10:22:18.306Z,21.82
2017-06-05T10:23:18.892Z,22.25
2017-06-05T10:24:19.479Z,22.47
2017-06-05T10:25:20.063Z,22.30
2017-06-05T10:26:20.649Z,22.83
2017-06-05T10:27:21.248Z,23.00
2017-06-05T10:28:21.832Z,22.81
2017-06-05T10:29:22.418Z,22.78
2017-06-05T10:30:23.006Z,22.99
2017-06-05T10:31:23.593Z,23.00
2017-06-05T10:32:24.177Z,22.62
2017-06-05T10:33:24.767Z,22.38
2017-06-05T10:34:25.365Z,22.66
2017-06-05T10:35:25.950Z,22.90
2017-06-05T10:36:26.537Z,22.98
2017-06-05T10:37:27.122Z,23.20
2017-06-05T10:38:27.706Z,22.94
2017-06-05T10:39:28.293Z,22.90
2017-06-05T10:40:28.883Z,22.87
2017-06-05T10:41:29.465Z,22.38
2017-06-05T10:42:30.050Z,22.93
2017-06-05T10:43:30.638Z,22.94
2017-06-05T10:44:31.223Z,22.78
2017-06-05T10:45:31.810Z,22.78
2017-06-05T10:46:32.397Z,22.81
2017-06-05T10:47:32.982Z,23.24
2017-06-05T10:48:33.567Z,22.80
2017-06-05T10:49:34.155Z,22.90
2017-06-05T10:50:34.739Z,23.09
2017-06-05T10:51:35.326Z,22.81
2017-06-05T10:52:35.915Z,22.15
2017-06-05T10:53:36.500Z,22.02
2017-06-05T10:54:37.086Z,22.25
2017-06-05T10:55:37.674Z,22.41
2017-06-05T10:56:38.258Z,22.96
2017-06-05T10:57:38.857Z,22.72
2017-06-05T10:58:39.442Z,22.11
2017-06-05T10:59:40.040Z,21.98
2017-06-05T11:00:40.627Z,21.69
2017-06-05T11:01:41.212Z,21.93
2017-06-05T11:02:41.798Z,22.17
2017-06-05T11:03:42.383Z,22.44
2017-06-05T11:04:42.968Z,22.36
2017-06-05T11:05:43.553Z,21.98
2017-06-05T11:06:44.138Z,21.95
2017-06-05T11:07:44.725Z,22.14
2017-06-05T11:08:45.311Z,22.17
2017-06-05T11:09:45.899Z,22.17
2017-06-05T11:10:46.483Z,22.33
2017-06-05T11:11:47.069Z,22.39
2017-06-05T11:12:47.653Z,22.36
2017-06-05T11:13:48.238Z,22.57
2017-06-05T11:14:48.826Z,22.39
2017-06-05T11:15:49.410Z,22.70
2017-06-05T11:16:50.008Z,23.59
2017-06-05T11:17:50.594Z,23.99
2017-06-05T11:18:51.181Z,24.02
2017-06-05T11:19:51.765Z,23.99
2017-06-05T11:20:52.349Z,24.30
2017-06-05T11:21:52.936Z,24.14
2017-06-05T11:22:53.522Z,24.40
2017-06-05T11:23:54.126Z,24.43
2017-06-05T11:24:54.708Z,24.08
2017-06-05T11:25:55.295Z,23.12
2017-06-05T11:26:55.882Z,23.73
2017-06-05T11:27:56.467Z,23.87
2017-06-05T11:28:57.055Z,24.36
2017-06-05T11:29:57.641Z,24.57
2017-06-05T11:30:58.228Z,23.83
2017-06-05T11:31:58.815Z,24.53
2017-06-05T11:32:59.415Z,24.54
2017-06-05T11:33:59.999Z,24.10
2017-06-05T11:35:00.585Z,23.41
2017-06-05T11:36:01.173Z,23.05
2017-06-05T11:37:01.758Z,23.54
2017-06-05T11:38:02.344Z,23.13
2017-06-05T11:39:02.930Z,23.05
2017-06-05T11:40:03.515Z,23.05
2017-06-05T11:41:04.099Z,22.96
2017-06-05T11:42:04.685Z,22.88
2017-06-05T11:43:05.270Z,23.36
2017-06-05T11:44:05.854Z,23.55
2017-06-05T11:45:06.438Z,23.27
2017-06-05T11:46:07.026Z,23.73
2017-06-05T11:47:07.612Z,24.06
2017-06-05T11:48:08.197Z,23.21
2017-06-05T11:49:08.782Z,23.25
2017-06-05T11:50:09.368Z,23.02
2017-06-05T11:51:09.952Z,22.93
2017-06-05T11:52:10.537Z,22.98
2017-06-05T11:53:11.124Z,23.47
2017-06-05T11:54:11.706Z,24.26
2017-06-05T11:55:12.292Z,24.77
2017-06-05T11:56:12.875Z,23.87
2017-06-05T11:57:13.459Z,23.06
2017-06-05T11:58:14.044Z,22.66
2017-06-05T11:59:14.630Z,22.53
2017-06-05T12:00:15.213Z,22.41
2017-06-05T12:01:15.796Z,22.66
2017-06-05T12:02:16.382Z,23.34
2017-06-05T12:03:16.964Z,23.51
2017-06-05T12:04:17.552Z,23.68
2017-06-05T12:05:18.135Z,23.65
2017-06-05T12:06:18.717Z,23.55
2017-06-05T12:07:19.301Z,23.00
2017-06-05T12:08:19.884Z,22.50
2017-06-05T12:09:20.470Z,22.43
2017-06-05T12:10:21.054Z,22.84
2017-06-05T12:11:21.638Z,22.90
2017-06-05T12:12:22.222Z,23.05
2017-06-05T12:13:22.812Z,23.37
2017-06-05T12:14:23.390Z,23.61
2017-06-05T12:15:23.974Z,23.56
2017-06-05T12:16:24.560Z,22.88
2017-06-05T12:17:25.158Z,22.76
2017-06-05T12:18:25.741Z,22.39
2017-06-05T12:19:26.323Z,22.33
2017-06-05T12:20:26.906Z,22.11
2017-06-05T12:21:27.506Z,22.33
2017-06-05T12:22:28.087Z,22.63
2017-06-05T12:23:28.673Z,22.81
2017-06-05T12:24:29.255Z,23.00
2017-06-05T12:25:29.840Z,23.03
2017-06-05T12:26:30.424Z,23.17
2017-06-05T12:27:31.006Z,23.28
2017-06-05T12:28:31.588Z,22.91
2017-06-05T12:29:32.174Z,23.09
2017-06-05T12:30:32.757Z,23.03
2017-06-05T12:31:33.341Z,22.63
2017-06-05T12:32:33.924Z,22.18
2017-06-05T12:33:34.507Z,22.20
2017-06-05T12:34:35.092Z,22.23
2017-06-05T12:35:35.675Z,22.26
2017-06-05T12:36:36.258Z,22.22
2017-06-05T12:37:36.843Z,22.39
2017-06-05T12:38:37.426Z,22.70
2017-06-05T12:39:38.009Z,22.65
2017-06-05T12:40:38.594Z,22.18
2017-06-05T12:41:39.177Z,21.93
2017-06-05T12:42:39.761Z,21.96
2017-06-05T12:43:40.344Z,22.20
2017-06-05T12:44:40.928Z,22.14
2017-06-05T12:45:41.513Z,22.06
2017-06-05T12:46:42.095Z,21.93
2017-06-05T12:47:42.680Z,22.06
2017-06-05T12:48:43.264Z,21.99
2017-06-05T12:49:43.847Z,21.80
2017-06-05T12:50:44.431Z,22.15
2017-06-05T12:51:45.017Z,22.36
2017-06-05T12:52:45.602Z,22.41
2017-06-05T12:53:46.185Z,22.45
2017-06-05T12:54:46.770Z,22.20
2017-06-05T12:55:47.353Z,22.11
2017-06-05T12:56:47.950Z,22.25
2017-06-05T12:57:48.533Z,22.43
2017-06-05T12:58:49.117Z,22.20
2017-06-05T12:59:49.701Z,22.11